Time;durP1;ratioP1;P1;durP2;ratioP2;P2;SDS_P1;SDS_P2;PMS_P1;PMS_P2;Temp;Humidity;BMP_temperature;BMP_pressure;BME280_temperature;BME280_humidity;BME280_pressure;Samples;Min_cycle;Max_cycle;Signal;HPM_P1;HPM_P2
2023/01/26 00:02:10;;;;;;;41.85;16.30;;;;;;;;;;5001785;28;20619;-82
2023/01/26 00:04:35;;;;;;;40.22;14.98;;;;;;;;;;5018101;28;20087;-81
2023/01/26 00:07:01;;;;;;;40.50;15.15;;;;;;;;;;5019652;28;20032;-81
2023/01/26 00:09:26;;;;;;;39.70;14.90;;;;;;;;;;5015987;28;20034;-81
2023/01/26 00:11:51;;;;;;;42.67;15.57;;;;;;;;;;5000854;28;20121;-81
2023/01/26 00:14:17;;;;;;;40.80;14.82;;;;;;;;;;5004730;28;20108;-81
2023/01/26 00:16:42;;;;;;;41.22;14.55;;;;;;;;;;5015758;28;20025;-81
2023/01/26 00:19:08;;;;;;;36.58;14.25;;;;;;;;;;5016975;28;20039;-81
2023/01/26 00:21:33;;;;;;;37.33;14.63;;;;;;;;;;5022211;28;20045;-81
2023/01/26 00:23:59;;;;;;;37.08;14.30;;;;;;;;;;5007218;28;20357;-81
2023/01/26 00:26:25;;;;;;;34.95;14.00;;;;;;;;;;5024529;28;20041;-81
2023/01/26 00:28:52;;;;;;;32.72;13.75;;;;;;;;;;5005228;28;20493;-81
2023/01/26 00:31:26;;;;;;;36.20;15.05;;;;;;;;;;5020623;28;20049;-81
2023/01/26 00:33:53;;;;;;;39.75;14.90;;;;;;;;;;5005309;28;20630;-81
2023/01/26 00:36:18;;;;;;;32.60;14.13;;;;;;;;;;5018143;28;20037;-81
2023/01/26 00:38:45;;;;;;;32.42;13.85;;;;;;;;;;5022316;28;20026;-81
2023/01/26 00:42:05;;;;;;;40.97;14.32;;;;;;;;;;5003463;28;20044;-80
2023/01/26 00:43:59;;;;;;;36.53;13.38;;;;;;;;;;5022541;28;20037;-81
2023/01/26 00:46:24;;;;;;;37.30;15.65;;;;;;;;;;5017590;28;20405;-81
2023/01/26 00:48:50;;;;;;;34.92;14.63;;;;;;;;;;5006969;28;20022;-81
2023/01/26 00:51:15;;;;;;;42.58;15.93;;;;;;;;;;5023968;28;20079;-81
2023/01/26 00:53:41;;;;;;;40.17;14.85;;;;;;;;;;5008042;28;20028;-81
2023/01/26 00:56:07;;;;;;;38.08;14.73;;;;;;;;;;5003205;28;20048;-81
2023/01/26 00:58:32;;;;;;;38.60;14.25;;;;;;;;;;4992953;28;20036;-81
2023/01/26 01:00:57;;;;;;;34.60;14.73;;;;;;;;;;5018545;28;20028;-81
2023/01/26 01:03:23;;;;;;;36.92;14.45;;;;;;;;;;5006813;28;20033;-81
2023/01/26 01:05:48;;;;;;;43.67;15.18;;;;;;;;;;5020021;28;20030;-81
2023/01/26 01:08:14;;;;;;;44.00;15.68;;;;;;;;;;5021038;28;20481;-81
2023/01/26 01:10:39;;;;;;;39.70;15.82;;;;;;;;;;5005284;28;20025;-80
2023/01/26 01:13:04;;;;;;;37.38;15.35;;;;;;;;;;5006535;28;20025;-81
2023/01/26 01:15:30;;;;;;;40.65;16.13;;;;;;;;;;5008778;28;20026;-81
2023/01/26 01:17:55;;;;;;;36.65;14.43;;;;;;;;;;5024176;28;20029;-81
2023/01/26 01:20:21;;;;;;;42.70;16.10;;;;;;;;;;5024500;28;20124;-81
2023/01/26 01:22:46;;;;;;;37.38;14.27;;;;;;;;;;5010604;28;20198;-81
2023/01/26 01:25:11;;;;;;;36.70;14.23;;;;;;;;;;5008135;28;20026;-81
2023/01/26 01:27:37;;;;;;;36.90;14.15;;;;;;;;;;5020193;28;20095;-81
2023/01/26 01:30:06;;;;;;;38.90;14.93;;;;;;;;;;5011507;28;20242;-81
2023/01/26 01:32:34;;;;;;;40.08;15.07;;;;;;;;;;5023445;28;20385;-81
2023/01/26 01:35:00;;;;;;;39.17;13.55;;;;;;;;;;5021066;28;20381;-81
2023/01/26 01:37:27;;;;;;;36.67;13.48;;;;;;;;;;5022215;28;20036;-81
2023/01/26 01:39:56;;;;;;;41.17;15.45;;;;;;;;;;5010705;28;20079;-81
2023/01/26 01:42:22;;;;;;;39.63;14.55;;;;;;;;;;5010985;28;20037;-81
2023/01/26 01:45:25;;;;;;;33.45;13.02;;;;;;;;;;5022593;28;20477;-81
2023/01/26 01:47:56;;;;;;;37.13;12.98;;;;;;;;;;5016420;28;20033;-80
2023/01/26 01:50:22;;;;;;;39.20;14.48;;;;;;;;;;5022450;28;20745;-81
2023/01/26 01:52:48;;;;;;;37.95;13.77;;;;;;;;;;5017158;28;20477;-81
2023/01/26 01:55:15;;;;;;;34.72;13.45;;;;;;;;;;5027012;28;20048;-81
2023/01/26 01:57:47;;;;;;;34.42;12.13;;;;;;;;;;5005428;28;20025;-81
2023/01/26 02:00:18;;;;;;;35.10;13.57;;;;;;;;;;5001565;28;20389;-81
2023/01/26 02:03:09;;;;;;;35.47;13.60;;;;;;;;;;5022417;28;20025;-81
2023/01/26 02:05:57;;;;;;;34.20;13.00;;;;;;;;;;5019920;28;20080;-81
2023/01/26 02:08:53;;;;;;;40.25;15.00;;;;;;;;;;5000370;28;20039;-81
2023/01/26 02:11:31;;;;;;;34.35;13.18;;;;;;;;;;5003610;28;20497;-80
2023/01/26 02:13:58;;;;;;;41.25;14.77;;;;;;;;;;5003780;28;20025;-81
2023/01/26 02:16:23;;;;;;;38.55;13.38;;;;;;;;;;5021404;28;20401;-81
2023/01/26 02:18:49;;;;;;;36.97;14.85;;;;;;;;;;5005885;28;20036;-81
2023/01/26 02:21:18;;;;;;;43.17;14.80;;;;;;;;;;5001048;28;20044;-81
2023/01/26 02:23:55;;;;;;;34.88;14.45;;;;;;;;;;5022095;28;20365;-81
2023/01/26 02:26:27;;;;;;;36.30;14.55;;;;;;;;;;5001541;28;20171;-81
2023/01/26 02:28:53;;;;;;;35.10;13.35;;;;;;;;;;5018965;28;20710;-81
2023/01/26 02:31:20;;;;;;;34.83;13.20;;;;;;;;;;5006508;28;20388;-81
2023/01/26 02:33:46;;;;;;;34.95;13.00;;;;;;;;;;4989560;28;20091;-81
2023/01/26 02:36:22;;;;;;;36.33;12.80;;;;;;;;;;5022350;28;20478;-80
2023/01/26 02:38:59;;;;;;;34.15;12.85;;;;;;;;;;5014717;28;20045;-81
2023/01/26 02:44:11;;;;;;;31.35;10.85;;;;;;;;;;5020755;28;20061;-80
2023/01/26 02:46:36;;;;;;;30.92;12.10;;;;;;;;;;5017228;28;20123;-81
2023/01/26 02:51:45;;;;;;;34.85;12.70;;;;;;;;;;5016477;28;20108;-81
2023/01/26 02:55:21;;;;;;;35.97;11.90;;;;;;;;;;5001693;28;20100;-81
2023/01/26 02:56:56;;;;;;;29.70;12.48;;;;;;;;;;5016051;28;20095;-80
2023/01/26 02:59:22;;;;;;;31.23;12.55;;;;;;;;;;5007505;28;20670;-80
2023/01/26 03:01:49;;;;;;;30.23;11.23;;;;;;;;;;5014797;28;20087;-80
2023/01/26 03:04:15;;;;;;;28.73;11.75;;;;;;;;;;4987614;28;20037;-81
2023/01/26 03:06:40;;;;;;;27.83;12.02;;;;;;;;;;5005027;28;20033;-81
2023/01/26 03:09:06;;;;;;;30.05;12.07;;;;;;;;;;5009681;28;20028;-81
2023/01/26 03:11:40;;;;;;;28.42;11.63;;;;;;;;;;5027167;28;20025;-81
2023/01/26 03:14:07;;;;;;;29.10;11.45;;;;;;;;;;5012449;28;20033;-81
2023/01/26 03:16:32;;;;;;;25.52;9.77;;;;;;;;;;5020994;28;20801;-81
2023/01/26 03:29:43;;;;;;;31.17;11.88;;;;;;;;;;5029356;28;20109;-81
2023/01/26 03:32:08;;;;;;;30.17;11.27;;;;;;;;;;5017328;28;20100;-81
2023/01/26 03:34:34;;;;;;;26.58;10.95;;;;;;;;;;5010320;28;20025;-80
2023/01/26 03:36:59;;;;;;;28.25;12.25;;;;;;;;;;5003424;28;20071;-80
2023/01/26 03:56:18;;;;;;;26.55;9.93;;;;;;;;;;5024774;28;20063;-80
2023/01/26 03:58:52;;;;;;;27.10;10.30;;;;;;;;;;5007755;28;20029;-81
2023/01/26 04:01:25;;;;;;;25.17;10.80;;;;;;;;;;5017575;28;20147;-80
2023/01/26 04:09:21;;;;;;;27.15;9.55;;;;;;;;;;5019888;28;20115;-81
2023/01/26 04:11:46;;;;;;;22.90;8.98;;;;;;;;;;5019878;28;20088;-80
2023/01/26 04:22:27;;;;;;;25.67;10.13;;;;;;;;;;5017869;28;20903;-80
2023/01/26 04:24:52;;;;;;;21.33;9.15;;;;;;;;;;5004829;28;20025;-81
2023/01/26 04:27:18;;;;;;;25.33;10.25;;;;;;;;;;5013952;28;20025;-80
2023/01/26 04:29:43;;;;;;;23.73;9.82;;;;;;;;;;4996724;28;20018;-81
2023/01/26 04:32:09;;;;;;;23.15;9.88;;;;;;;;;;5003050;28;20041;-80
2023/01/26 04:34:34;;;;;;;23.60;9.45;;;;;;;;;;4994338;28;20041;-80
2023/01/26 04:37:00;;;;;;;24.60;10.15;;;;;;;;;;5019831;28;20033;-81
2023/01/26 04:39:25;;;;;;;22.75;9.70;;;;;;;;;;4999538;28;20034;-81
2023/01/26 04:41:50;;;;;;;26.13;9.63;;;;;;;;;;5006070;28;20025;-80
2023/01/26 04:44:16;;;;;;;28.92;10.85;;;;;;;;;;5025295;28;20033;-81
2023/01/26 04:46:42;;;;;;;27.17;10.15;;;;;;;;;;5006538;28;20473;-81
2023/01/26 04:49:07;;;;;;;26.38;9.18;;;;;;;;;;5007468;28;20481;-81
2023/01/26 04:51:33;;;;;;;26.73;10.63;;;;;;;;;;5029419;28;20025;-81
2023/01/26 04:53:58;;;;;;;26.33;10.35;;;;;;;;;;5011649;28;20025;-80
2023/01/26 04:56:29;;;;;;;24.02;10.15;;;;;;;;;;5010569;28;20095;-81
2023/01/26 04:58:56;;;;;;;26.10;10.18;;;;;;;;;;5011083;28;20053;-80
2023/01/26 05:01:22;;;;;;;26.20;9.40;;;;;;;;;;5008838;28;20033;-80
2023/01/26 05:03:47;;;;;;;24.58;9.80;;;;;;;;;;5027484;28;20075;-81
2023/01/26 05:06:13;;;;;;;27.90;9.13;;;;;;;;;;5030124;28;20067;-80
2023/01/26 05:08:39;;;;;;;25.53;10.00;;;;;;;;;;4990035;28;1141312;-81
2023/01/26 05:11:05;;;;;;;25.55;8.77;;;;;;;;;;5041587;28;20344;-81
2023/01/26 05:13:30;;;;;;;28.95;10.30;;;;;;;;;;5023804;28;20478;-80
2023/01/26 05:15:56;;;;;;;27.20;10.07;;;;;;;;;;5009308;28;20033;-80
2023/01/26 05:18:21;;;;;;;23.10;8.27;;;;;;;;;;5019477;28;20037;-81
2023/01/26 05:20:47;;;;;;;26.08;9.57;;;;;;;;;;5020734;28;20040;-81
2023/01/26 05:23:12;;;;;;;28.27;10.68;;;;;;;;;;5022326;28;20042;-80
2023/01/26 05:25:38;;;;;;;26.17;9.52;;;;;;;;;;5007191;28;20064;-81
2023/01/26 05:28:04;;;;;;;25.02;9.65;;;;;;;;;;5004787;28;20017;-80
2023/01/26 05:30:29;;;;;;;27.27;10.30;;;;;;;;;;4999113;28;20170;-79
2023/01/26 05:33:02;;;;;;;24.23;8.70;;;;;;;;;;5023452;28;20029;-81
2023/01/26 05:35:27;;;;;;;25.65;9.60;;;;;;;;;;5019149;28;20474;-81
2023/01/26 05:37:53;;;;;;;25.83;9.30;;;;;;;;;;5018550;28;20032;-81
2023/01/26 05:40:20;;;;;;;23.98;9.00;;;;;;;;;;5006682;28;20036;-80
2023/01/26 05:42:46;;;;;;;20.50;8.43;;;;;;;;;;4996037;28;20037;-80
2023/01/26 05:45:12;;;;;;;26.45;9.75;;;;;;;;;;5019295;28;20630;-81
2023/01/26 05:47:37;;;;;;;24.15;9.60;;;;;;;;;;5021052;28;20039;-80
2023/01/26 05:50:04;;;;;;;23.23;9.07;;;;;;;;;;5025751;28;20029;-81
2023/01/26 05:52:29;;;;;;;22.33;8.77;;;;;;;;;;5017796;28;20036;-80
2023/01/26 05:54:55;;;;;;;19.17;8.25;;;;;;;;;;5007316;28;20409;-81
2023/01/26 05:57:20;;;;;;;21.08;8.57;;;;;;;;;;5018574;28;20056;-80
2023/01/26 05:59:45;;;;;;;21.73;9.00;;;;;;;;;;5016044;28;20022;-81
2023/01/26 06:02:11;;;;;;;25.27;9.38;;;;;;;;;;5017411;28;20136;-80
2023/01/26 06:04:37;;;;;;;20.15;8.55;;;;;;;;;;5002980;28;20172;-81
2023/01/26 06:07:02;;;;;;;21.90;9.25;;;;;;;;;;5029791;28;20018;-80
2023/01/26 06:09:28;;;;;;;24.38;8.55;;;;;;;;;;5015351;28;20636;-80
2023/01/26 06:11:53;;;;;;;20.08;8.02;;;;;;;;;;5027549;28;20033;-80
2023/01/26 06:14:19;;;;;;;25.20;9.43;;;;;;;;;;5031450;28;20037;-81
2023/01/26 06:16:44;;;;;;;21.95;8.70;;;;;;;;;;5014211;28;20754;-80
2023/01/26 06:19:10;;;;;;;20.88;8.55;;;;;;;;;;5012023;28;20040;-81
2023/01/26 06:21:35;;;;;;;21.55;8.93;;;;;;;;;;5031099;28;20117;-81
2023/01/26 06:24:01;;;;;;;22.27;8.15;;;;;;;;;;5014257;28;20025;-81
2023/01/26 06:26:27;;;;;;;20.52;8.57;;;;;;;;;;5012188;28;20056;-81
2023/01/26 06:28:52;;;;;;;20.77;7.47;;;;;;;;;;5030256;28;20473;-80
2023/01/26 06:31:19;;;;;;;22.48;8.77;;;;;;;;;;5012003;28;20111;-81
2023/01/26 06:33:44;;;;;;;23.65;9.38;;;;;;;;;;5028662;28;20029;-81
2023/01/26 06:36:12;;;;;;;19.23;8.70;;;;;;;;;;5029772;28;20075;-81
2023/01/26 06:38:38;;;;;;;19.70;7.90;;;;;;;;;;5015082;28;20108;-81
2023/01/26 06:41:05;;;;;;;25.08;8.50;;;;;;;;;;5027116;28;20079;-80
2023/01/26 06:43:33;;;;;;;22.83;7.93;;;;;;;;;;5028146;28;20029;-80
2023/01/26 06:45:58;;;;;;;19.80;8.52;;;;;;;;;;5011302;28;20392;-80
2023/01/26 06:48:25;;;;;;;20.88;7.97;;;;;;;;;;5032745;28;20105;-81
2023/01/26 06:50:51;;;;;;;19.90;8.35;;;;;;;;;;5010904;28;20087;-80
2023/01/26 06:53:32;;;;;;;22.55;8.20;;;;;;;;;;5019006;28;20096;-81
2023/01/26 06:55:58;;;;;;;23.27;8.05;;;;;;;;;;5020391;28;20037;-81
2023/01/26 06:58:23;;;;;;;21.35;9.68;;;;;;;;;;5016209;28;20469;-80
2023/01/26 07:00:49;;;;;;;21.77;8.60;;;;;;;;;;5024152;28;20465;-81
2023/01/26 07:03:14;;;;;;;25.05;8.88;;;;;;;;;;5026230;28;20481;-80
2023/01/26 07:05:40;;;;;;;18.60;8.15;;;;;;;;;;5009789;28;20013;-80
2023/01/26 07:08:07;;;;;;;17.08;7.25;;;;;;;;;;5009887;28;20481;-80
2023/01/26 07:10:33;;;;;;;20.30;8.07;;;;;;;;;;5018042;28;20451;-81
2023/01/26 07:12:59;;;;;;;24.58;8.48;;;;;;;;;;5012785;28;20031;-80
2023/01/26 07:15:24;;;;;;;19.13;7.55;;;;;;;;;;5026054;28;20021;-80
2023/01/26 07:17:49;;;;;;;23.58;8.88;;;;;;;;;;5013628;28;20025;-79
2023/01/26 07:20:15;;;;;;;21.15;8.30;;;;;;;;;;5029911;28;20083;-81
2023/01/26 07:22:40;;;;;;;21.83;8.27;;;;;;;;;;5013423;28;20033;-80
2023/01/26 07:25:06;;;;;;;18.38;7.43;;;;;;;;;;5012389;28;20025;-80
2023/01/26 07:27:31;;;;;;;19.08;7.78;;;;;;;;;;5011778;28;20029;-81
2023/01/26 07:29:57;;;;;;;23.83;8.43;;;;;;;;;;5013097;28;20029;-80
2023/01/26 07:32:22;;;;;;;22.60;8.15;;;;;;;;;;5029665;28;20033;-80
2023/01/26 07:34:48;;;;;;;22.77;8.68;;;;;;;;;;5010569;28;20393;-80
2023/01/26 07:37:14;;;;;;;17.67;7.35;;;;;;;;;;5027095;28;20389;-80
2023/01/26 07:39:39;;;;;;;19.25;7.68;;;;;;;;;;5008372;28;20022;-81
2023/01/26 07:42:04;;;;;;;18.55;7.55;;;;;;;;;;5030437;28;20030;-81
2023/01/26 07:44:30;;;;;;;21.75;8.90;;;;;;;;;;5031162;28;20032;-81
2023/01/26 07:46:56;;;;;;;18.60;7.78;;;;;;;;;;5012323;28;20513;-81
2023/01/26 07:49:22;;;;;;;20.35;8.27;;;;;;;;;;5030760;28;20472;-81
2023/01/26 07:51:47;;;;;;;18.55;7.75;;;;;;;;;;5025692;28;20022;-81
2023/01/26 07:54:13;;;;;;;19.65;8.48;;;;;;;;;;5029445;28;20036;-81
2023/01/26 07:56:38;;;;;;;18.23;7.22;;;;;;;;;;5024915;28;20366;-81
2023/01/26 07:59:03;;;;;;;20.15;8.27;;;;;;;;;;5025683;28;20539;-81
2023/01/26 08:01:29;;;;;;;18.38;6.88;;;;;;;;;;5026170;28;20025;-81
2023/01/26 08:03:54;;;;;;;22.75;7.93;;;;;;;;;;5027858;28;20083;-81
2023/01/26 08:06:21;;;;;;;20.88;7.97;;;;;;;;;;5011518;28;20065;-82
2023/01/26 08:08:52;;;;;;;23.25;8.80;;;;;;;;;;5029619;28;20032;-81
2023/01/26 08:11:19;;;;;;;24.35;9.23;;;;;;;;;;5027264;28;20096;-81
2023/01/26 08:13:44;;;;;;;21.85;7.97;;;;;;;;;;5008679;28;20761;-81
2023/01/26 08:16:11;;;;;;;21.48;8.60;;;;;;;;;;5030599;28;20061;-81
2023/01/26 08:18:41;;;;;;;22.35;7.65;;;;;;;;;;5029684;28;20030;-81
2023/01/26 08:21:07;;;;;;;20.52;8.13;;;;;;;;;;5026338;28;20082;-81
2023/01/26 08:23:32;;;;;;;21.83;7.25;;;;;;;;;;5028289;28;20033;-81
2023/01/26 08:26:07;;;;;;;20.45;8.05;;;;;;;;;;5009522;28;20120;-81
2023/01/26 08:28:33;;;;;;;24.95;9.68;;;;;;;;;;5011287;28;20025;-81
2023/01/26 08:31:13;;;;;;;21.23;8.00;;;;;;;;;;5011567;28;20040;-81
2023/01/26 08:33:40;;;;;;;19.45;7.32;;;;;;;;;;5013455;28;20405;-81
2023/01/26 08:36:10;;;;;;;19.23;8.13;;;;;;;;;;5029942;28;20021;-81
2023/01/26 08:38:35;;;;;;;21.58;7.72;;;;;;;;;;5010650;28;20458;-81
2023/01/26 08:41:02;;;;;;;22.50;8.43;;;;;;;;;;5004181;28;20112;-81
2023/01/26 08:43:27;;;;;;;21.70;7.60;;;;;;;;;;5010998;28;20064;-81
2023/01/26 08:45:53;;;;;;;21.67;8.20;;;;;;;;;;5011362;28;20057;-81
2023/01/26 08:48:19;;;;;;;25.52;9.75;;;;;;;;;;5013239;28;20036;-81
2023/01/26 08:50:44;;;;;;;22.75;8.65;;;;;;;;;;5025274;28;20381;-81
2023/01/26 08:53:10;;;;;;;18.75;8.43;;;;;;;;;;5030153;28;20022;-81
2023/01/26 08:55:35;;;;;;;21.25;7.95;;;;;;;;;;5028581;28;21036;-80
2023/01/26 08:58:01;;;;;;;20.50;8.05;;;;;;;;;;5007271;28;20021;-81
2023/01/26 09:00:28;;;;;;;19.85;7.93;;;;;;;;;;5008044;28;20022;-80
2023/01/26 09:03:01;;;;;;;19.73;8.02;;;;;;;;;;5011282;28;20079;-81
2023/01/26 09:05:29;;;;;;;24.75;7.95;;;;;;;;;;5026600;28;20029;-81
2023/01/26 09:07:55;;;;;;;18.58;7.63;;;;;;;;;;5026811;28;20643;-81
2023/01/26 09:10:20;;;;;;;24.80;8.63;;;;;;;;;;5010874;28;20073;-81
2023/01/26 09:12:46;;;;;;;25.45;9.85;;;;;;;;;;5028095;28;20397;-81
2023/01/26 09:15:11;;;;;;;23.98;9.15;;;;;;;;;;5028223;28;20064;-80
2023/01/26 09:17:37;;;;;;;22.38;7.80;;;;;;;;;;5022290;28;20727;-81
2023/01/26 09:20:04;;;;;;;25.63;8.85;;;;;;;;;;4997270;28;20029;-81
2023/01/26 09:22:29;;;;;;;22.13;9.15;;;;;;;;;;5029524;28;20405;-81
2023/01/26 09:24:55;;;;;;;19.90;8.73;;;;;;;;;;5035027;28;20029;-81
2023/01/26 09:27:20;;;;;;;23.58;8.85;;;;;;;;;;5025389;28;20025;-81
2023/01/26 09:29:46;;;;;;;24.27;8.90;;;;;;;;;;5032515;28;20013;-81
2023/01/26 09:32:11;;;;;;;24.38;9.05;;;;;;;;;;5010321;28;20469;-79
2023/01/26 09:34:37;;;;;;;24.75;9.50;;;;;;;;;;5016265;28;20120;-81
2023/01/26 09:37:02;;;;;;;28.48;9.10;;;;;;;;;;5030826;28;20102;-80
2023/01/26 09:39:28;;;;;;;25.80;9.82;;;;;;;;;;4994724;28;20036;-81
2023/01/26 09:42:18;;;;;;;23.08;8.82;;;;;;;;;;5027833;28;20541;-80
2023/01/26 09:45:11;;;;;;;22.00;8.13;;;;;;;;;;5022511;28;20114;-80
2023/01/26 09:47:46;;;;;;;;;;;;;;;;;;5032102;28;20024;-81
2023/01/26 09:50:16;;;;;;;22.88;7.68;;;;;;;;;;5022949;28;20023;-80
2023/01/26 09:53:31;;;;;;;25.02;8.45;;;;;;;;;;5030872;28;20025;-80
2023/01/26 09:55:57;;;;;;;20.70;8.35;;;;;;;;;;4995196;28;20033;-81
2023/01/26 09:58:39;;;;;;;20.90;7.63;;;;;;;;;;5013841;28;20388;-80
2023/01/26 10:01:15;;;;;;;23.40;8.20;;;;;;;;;;5030186;28;20574;-81
2023/01/26 10:04:09;;;;;;;24.55;9.05;;;;;;;;;;5031778;28;20358;-81
2023/01/26 10:06:36;;;;;;;23.88;8.23;;;;;;;;;;4989309;28;20067;-81
2023/01/26 10:09:11;;;;;;;23.88;8.15;;;;;;;;;;5030860;28;20500;-80
2023/01/26 10:11:40;;;;;;;27.15;9.40;;;;;;;;;;5012889;28;20037;-81
2023/01/26 10:14:13;;;;;;;27.67;9.05;;;;;;;;;;5013964;28;20025;-81
2023/01/26 10:16:42;;;;;;;26.88;9.20;;;;;;;;;;5029285;28;20481;-81
2023/01/26 10:19:35;;;;;;;28.30;9.32;;;;;;;;;;5015159;28;20060;-81
2023/01/26 10:22:08;;;;;;;23.52;8.65;;;;;;;;;;5013307;28;20547;-81
2023/01/26 10:24:34;;;;;;;27.38;9.07;;;;;;;;;;5030797;28;20025;-80
2023/01/26 10:26:59;;;;;;;26.50;8.90;;;;;;;;;;5031452;28;20385;-80
2023/01/26 10:29:25;;;;;;;29.52;10.63;;;;;;;;;;5031494;28;20017;-81
2023/01/26 10:31:50;;;;;;;24.92;9.27;;;;;;;;;;5014758;28;20120;-81
2023/01/26 10:34:25;;;;;;;30.98;9.95;;;;;;;;;;5027587;28;20029;-81
2023/01/26 10:37:01;;;;;;;24.23;9.32;;;;;;;;;;5008604;28;20137;-81
2023/01/26 10:39:26;;;;;;;23.52;8.73;;;;;;;;;;5026332;28;20029;-81
2023/01/26 10:42:00;;;;;;;23.73;8.80;;;;;;;;;;5028628;28;20436;-82
2023/01/26 10:44:38;;;;;;;23.08;7.88;;;;;;;;;;5011185;28;20029;-82
2023/01/26 10:47:24;;;;;;;24.42;7.97;;;;;;;;;;5010743;28;20087;-82
2023/01/26 10:49:50;;;;;;;22.25;7.40;;;;;;;;;;5005040;28;20076;-82
2023/01/26 10:52:21;;;;;;;23.02;7.82;;;;;;;;;;5011873;28;20033;-81
2023/01/26 10:54:47;;;;;;;19.10;6.15;;;;;;;;;;5010495;28;20437;-81
2023/01/26 10:57:28;;;;;;;18.58;5.93;;;;;;;;;;5026927;28;20017;-81
2023/01/26 10:59:59;;;;;;;17.73;5.18;;;;;;;;;;5024066;28;20018;-82
2023/01/26 11:02:28;;;;;;;16.27;5.30;;;;;;;;;;5013023;28;20030;-82
2023/01/26 11:05:14;;;;;;;21.23;6.32;;;;;;;;;;5026581;28;20080;-81
2023/01/26 11:07:45;;;;;;;16.52;5.60;;;;;;;;;;5013573;28;20071;-82
2023/01/26 11:10:20;;;;;;;18.48;5.63;;;;;;;;;;5005336;28;20034;-82
2023/01/26 11:12:46;;;;;;;19.38;5.43;;;;;;;;;;5013972;28;20030;-82
2023/01/26 11:15:22;;;;;;;19.73;6.10;;;;;;;;;;5012106;28;20052;-82
2023/01/26 11:18:10;;;;;;;20.92;5.90;;;;;;;;;;5019486;28;20566;-82
2023/01/26 11:20:45;;;;;;;16.08;4.40;;;;;;;;;;5006974;28;20065;-82
2023/01/26 11:23:39;;;;;;;15.52;4.28;;;;;;;;;;5009343;28;20022;-82
2023/01/26 11:26:24;;;;;;;14.90;4.32;;;;;;;;;;5030369;28;20033;-82
2023/01/26 11:28:58;;;;;;;15.95;5.03;;;;;;;;;;5028129;28;20116;-82
2023/01/26 11:32:10;;;;;;;14.73;4.10;;;;;;;;;;5026719;28;20096;-82
2023/01/26 11:35:06;;;;;;;17.63;4.30;;;;;;;;;;4982579;28;20099;-82
2023/01/26 11:37:48;;;;;;;15.82;4.68;;;;;;;;;;5023041;28;20035;-82
2023/01/26 11:40:25;;;;;;;14.48;4.38;;;;;;;;;;5011117;28;20065;-81
2023/01/26 11:42:57;;;;;;;14.10;3.40;;;;;;;;;;5029991;28;20025;-82
2023/01/26 11:46:04;;;;;;;21.15;4.05;;;;;;;;;;5027968;28;20052;-83
2023/01/26 11:48:52;;;;;;;11.70;3.08;;;;;;;;;;5026482;28;20393;-82
2023/01/26 11:51:36;;;;;;;19.45;3.00;;;;;;;;;;5024992;28;20448;-82
2023/01/26 11:54:23;;;;;;;12.15;2.97;;;;;;;;;;5012353;28;20029;-83
2023/01/26 11:56:55;;;;;;;11.05;2.70;;;;;;;;;;5030165;28;20392;-83
2023/01/26 11:59:28;;;;;;;14.35;3.58;;;;;;;;;;5009226;28;20148;-83
2023/01/26 12:02:21;;;;;;;12.20;2.60;;;;;;;;;;5013417;28;20032;-82
2023/01/26 12:04:47;;;;;;;14.50;3.22;;;;;;;;;;5008358;28;20417;-83
2023/01/26 12:07:26;;;;;;;13.13;3.63;;;;;;;;;;5011661;28;20025;-82
2023/01/26 12:09:51;;;;;;;11.57;2.95;;;;;;;;;;5032254;28;20013;-83
2023/01/26 12:12:36;;;;;;;12.73;3.42;;;;;;;;;;5031430;28;20033;-82
2023/01/26 12:15:10;;;;;;;9.63;2.33;;;;;;;;;;5031664;28;20076;-83
2023/01/26 12:17:57;;;;;;;9.20;2.42;;;;;;;;;;5013240;28;20033;-83
2023/01/26 12:20:36;;;;;;;19.50;2.78;;;;;;;;;;5032032;28;20065;-82
2023/01/26 12:23:08;;;;;;;13.55;2.90;;;;;;;;;;5022450;28;20037;-82
2023/01/26 12:26:00;;;;;;;15.98;2.60;;;;;;;;;;5009671;28;20041;-82
2023/01/26 12:28:33;;;;;;;11.38;2.10;;;;;;;;;;5004558;28;20489;-82
2023/01/26 12:31:12;;;;;;;11.18;2.15;;;;;;;;;;5015461;28;20493;-82
2023/01/26 12:33:38;;;;;;;9.30;2.90;;;;;;;;;;5025805;28;20116;-82
2023/01/26 12:36:34;;;;;;;14.02;3.05;;;;;;;;;;5027372;28;20163;-82
2023/01/26 12:39:12;;;;;;;9.43;1.85;;;;;;;;;;5027108;28;20034;-82
2023/01/26 12:41:57;;;;;;;9.77;1.77;;;;;;;;;;5026192;28;20029;-83
2023/01/26 12:44:39;;;;;;;12.88;2.00;;;;;;;;;;5018451;28;20406;-83
2023/01/26 12:47:14;;;;;;;14.70;2.15;;;;;;;;;;5011326;28;20033;-83
2023/01/26 12:49:56;;;;;;;7.32;1.40;;;;;;;;;;5024777;28;20029;-83
2023/01/26 12:52:52;;;;;;;12.13;2.22;;;;;;;;;;5010948;28;20057;-82
2023/01/26 12:55:26;;;;;;;10.40;1.73;;;;;;;;;;5011959;28;20033;-82
2023/01/26 12:57:59;;;;;;;6.03;1.40;;;;;;;;;;5030312;28;20052;-82
2023/01/26 13:00:29;;;;;;;9.20;1.58;;;;;;;;;;5030511;28;20061;-82
2023/01/26 13:03:12;;;;;;;8.50;1.38;;;;;;;;;;5017322;28;20025;-82
2023/01/26 13:06:00;;;;;;;6.00;1.20;;;;;;;;;;5028485;28;20025;-82
2023/01/26 13:08:50;;;;;;;8.85;2.13;;;;;;;;;;5029065;28;20537;-82
2023/01/26 13:11:58;;;;;;;9.98;1.40;;;;;;;;;;5035906;28;20025;-82
2023/01/26 13:14:30;;;;;;;7.13;1.20;;;;;;;;;;5021126;28;20056;-82
2023/01/26 13:16:56;;;;;;;9.43;1.60;;;;;;;;;;5018549;28;20556;-82
2023/01/26 13:19:43;;;;;;;9.77;1.50;;;;;;;;;;5030770;28;20037;-82
2023/01/26 13:22:18;;;;;;;5.50;1.15;;;;;;;;;;5032786;28;20037;-82
2023/01/26 13:24:54;;;;;;;9.50;1.67;;;;;;;;;;5033281;28;20025;-82
2023/01/26 13:27:38;;;;;;;8.25;1.42;;;;;;;;;;5014269;28;20041;-83
2023/01/26 13:30:22;;;;;;;11.95;1.45;;;;;;;;;;5028538;28;20030;-82
2023/01/26 13:32:47;;;;;;;6.30;0.85;;;;;;;;;;5025190;28;20493;-82
2023/01/26 13:35:16;;;;;;;6.97;1.20;;;;;;;;;;5016030;28;20029;-82
2023/01/26 13:38:19;;;;;;;13.18;1.52;;;;;;;;;;5026088;28;20030;-82
2023/01/26 13:40:48;;;;;;;6.37;1.00;;;;;;;;;;5009809;28;20117;-82
2023/01/26 13:43:28;;;;;;;6.65;1.05;;;;;;;;;;5014851;28;20025;-82
2023/01/26 13:46:07;;;;;;;12.43;1.52;;;;;;;;;;5029268;28;20377;-83
2023/01/26 13:48:40;;;;;;;8.13;1.05;;;;;;;;;;5016693;28;20543;-82
2023/01/26 13:51:07;;;;;;;;;;;;;;;;;;5018895;28;20025;-83
2023/01/26 13:53:40;;;;;;;7.00;1.02;;;;;;;;;;5015098;28;19913;-83
2023/01/26 13:56:37;;;;;;;10.50;0.90;;;;;;;;;;5033349;28;20507;-82
2023/01/26 13:59:19;;;;;;;4.28;0.95;;;;;;;;;;5010894;28;20092;-82
2023/01/26 14:01:47;;;;;;;5.72;1.02;;;;;;;;;;5015550;28;20039;-83
2023/01/26 14:04:21;;;;;;;10.15;1.25;;;;;;;;;;5017757;28;20032;-82
2023/01/26 14:07:10;;;;;;;4.45;0.98;;;;;;;;;;5013829;28;20120;-82
2023/01/26 14:10:02;;;;;;;5.10;1.02;;;;;;;;;;5012039;28;20119;-82
2023/01/26 14:12:38;;;;;;;9.90;1.35;;;;;;;;;;5011252;28;20041;-82
2023/01/26 14:15:06;;;;;;;6.70;1.10;;;;;;;;;;5014076;28;20049;-82
2023/01/26 14:17:35;;;;;;;6.35;1.02;;;;;;;;;;5016776;28;20031;-82
2023/01/26 14:20:04;;;;;;;8.75;1.00;;;;;;;;;;5015186;28;20149;-82
2023/01/26 14:22:30;;;;;;;5.90;1.17;;;;;;;;;;5014557;28;20428;-82
2023/01/26 14:24:55;;;;;;;8.77;1.00;;;;;;;;;;5012788;28;20034;-81
2023/01/26 14:27:39;;;;;;;3.75;0.80;;;;;;;;;;5014573;28;20493;-82
2023/01/26 14:30:24;;;;;;;;;;;;;;;;;;5014558;28;20033;-82
2023/01/26 14:33:02;;;;;;;9.07;0.75;;;;;;;;;;5022862;28;20281;-82
2023/01/26 14:35:28;;;;;;;8.02;1.02;;;;;;;;;;5029200;28;20103;-82
2023/01/26 14:38:11;;;;;;;6.28;0.70;;;;;;;;;;5027916;28;20076;-82
2023/01/26 14:40:46;;;;;;;3.97;0.80;;;;;;;;;;5025085;28;20034;-82
2023/01/26 14:43:12;;;;;;;9.15;0.95;;;;;;;;;;5030300;28;20037;-82
2023/01/26 14:45:43;;;;;;;4.68;0.60;;;;;;;;;;5028911;28;20029;-82
2023/01/26 14:48:14;;;;;;;8.55;1.15;;;;;;;;;;5011693;28;20062;-82
2023/01/26 14:50:40;;;;;;;6.32;0.88;;;;;;;;;;5028646;28;20079;-82
2023/01/26 14:53:17;;;;;;;7.13;0.90;;;;;;;;;;5030463;28;20508;-81
2023/01/26 14:55:43;;;;;;;5.90;0.70;;;;;;;;;;5026065;28;20021;-82
2023/01/26 14:58:22;;;;;;;6.88;1.02;;;;;;;;;;5024323;28;20025;-82
2023/01/26 15:00:48;;;;;;;3.80;0.60;;;;;;;;;;5025333;28;20025;-82
2023/01/26 15:03:21;;;;;;;7.47;1.20;;;;;;;;;;5019052;28;20029;-82
2023/01/26 15:05:47;;;;;;;8.45;1.17;;;;;;;;;;5009785;28;20025;-82
2023/01/26 15:08:23;;;;;;;9.65;1.05;;;;;;;;;;4996846;28;20037;-82
2023/01/26 15:13:46;;;;;;;4.55;1.33;;;;;;;;;;5029052;28;20040;-82
2023/01/26 15:16:20;;;;;;;6.10;0.85;;;;;;;;;;5014316;28;20061;-82
2023/01/26 15:18:57;;;;;;;7.13;0.90;;;;;;;;;;5031599;28;20071;-82
2023/01/26 15:21:38;;;;;;;6.47;1.10;;;;;;;;;;5027792;28;20069;-82
2023/01/26 15:24:05;;;;;;;4.63;0.77;;;;;;;;;;5008457;28;20041;-81
2023/01/26 15:26:35;;;;;;;6.35;1.02;;;;;;;;;;5008868;28;20388;-81
2023/01/26 15:29:16;;;;;;;8.15;0.98;;;;;;;;;;5010757;28;20027;-81
2023/01/26 15:31:42;;;;;;;5.15;0.75;;;;;;;;;;5028178;28;20392;-82
2023/01/26 15:34:29;;;;;;;3.75;0.95;;;;;;;;;;5003025;28;20034;-82
2023/01/26 15:36:56;;;;;;;3.28;0.80;;;;;;;;;;5021487;28;20022;-81
2023/01/26 15:39:22;;;;;;;4.88;0.80;;;;;;;;;;5008781;28;20068;-81
2023/01/26 15:42:09;;;;;;;4.47;1.00;;;;;;;;;;5010902;28;20057;-81